• Join FlightAware (Why Join?)
  • Login
  • US Flag 
08:07AM EDT


 

Airport Tracker/Info


-or-


 

Live Flight TrackerFlight Track Log ✈ UAL252 ✈ 19-Jun-2013 ✈ KEWR - KMCO

Flight Track Log - Related Links

Times and Time Zones

All times are in EDT time to prevent confusion due to time zone crossing. See the UAL252 flight status page for this flight to view local times or setup timezone preferences in your user account.

Time Position Orientation Groundspeed Altitude Reporting Facility
EDT Latitude Longitude Course Direction KTS MPH feet Rate Location/Type
09:16PM 40.7394 -74.1097 207° Southwest 203 234 2,500  Level New York Center
09:17PM 40.7892 -74.1178 353° North 260 299 4,600 2,760 Climbing New York Center
09:18PM 40.3872 -74.1887 161° South  Level FlightAware Approximate
09:18PM 40.7500 -74.2000 238° Southwest 287 330 8,200  Level New York TRACON
09:19PM 40.2829 -74.1557 194° South  Level FlightAware Approximate
09:19PM 40.6667 -74.2167 189° South 299 344 10,900  Level New York TRACON
09:20PM 40.1766 -74.1911 194° South  Level FlightAware Approximate
09:20PM 40.5667 -74.2167 180° South 357 411 12,000  Level New York TRACON
09:21PM 40.0710 -74.2228 201° Southwest  Level FlightAware Approximate
09:22PM 39.9707 -74.2695 207° Southwest  Level FlightAware Approximate
09:22PM 40.3567 -74.2356 184° South 408 470 15,500  Level New York Center
09:23PM 40.2503 -74.2411 182° South 424 488 17,200 1,560 Climbing New York Center
09:24PM 40.1269 -74.2511 184° South 438 504 18,600 1,560 Climbing New York Center
09:25PM 40.0039 -74.3236 204° Southwest 433 498 20,300 1,740 Climbing New York Center
09:27PM 39.7811 -74.4764 208° Southwest 439 505 24,000 1,440 Climbing Washington Center
09:28PM 39.6967 -74.5883 226° Southwest 439 505 24,700 780 Climbing Washington Center
09:29PM 39.6122 -74.7053 227° Southwest 439 505 25,600 1,020 Climbing Washington Center
09:30PM 39.5236 -74.8194 225° Southwest 445 512 26,800 1,620 Climbing Washington Center
09:31PM 39.4386 -74.9306 225° Southwest 450 518 28,900 1,620 Climbing Washington Center
09:32PM 39.3558 -75.0414 226° Southwest 438 504 30,100 1,680 Climbing Washington Center
09:33PM 39.2606 -75.1253 214° Southwest 427 491 32,300 2,100 Climbing Washington Center
09:34PM 39.1564 -75.1714 199° South 407 468 34,400 1,320 Climbing Washington Center
09:35PM 39.0564 -75.2119 197° South 399 459 35,000 720 Climbing Washington Center
09:36PM 38.9525 -75.2553 198° South 394 453 35,900 480 Climbing Washington Center
09:37PM 38.8544 -75.3039 201° Southwest 388 447 36,000  Climbing Washington Center
09:38PM 38.7503 -75.3414 196° South 382 440 36,000 -60 Level Washington Center
09:39PM 38.6567 -75.4031 207° Southwest 382 440 35,900 -60 Descending Washington Center
09:40PM 38.5608 -75.4589 204° Southwest 382 440 35,900  Level Washington Center
09:41PM 38.4650 -75.5122 204° Southwest 382 440 35,900  Level Washington Center
09:42PM 38.3711 -75.5731 207° Southwest 382 440 36,000  Climbing Washington Center
09:43PM 38.2753 -75.6261 203° Southwest 382 440 36,000  Level Washington Center
09:44PM 38.1794 -75.6842 205° Southwest 382 440 36,000  Level Washington Center
09:45PM 38.0917 -75.7369 205° Southwest 377 434 36,000  Level Washington Center
09:46PM 38.0000 -75.8000 208° Southwest 377 434 36,000  Level Washington Center
09:47PM 37.8997 -75.8522 202° Southwest 383 441 36,000  Level Washington Center
09:48PM 37.8036 -75.9125 206° Southwest 388 447 36,000  Level Washington Center
09:49PM 37.7075 -75.9750 207° Southwest 381 438 36,000 -60 Level Washington Center
09:50PM 37.6133 -76.0322 206° Southwest 381 438 35,900 -60 Descending Washington Center
09:52PM 37.4983 -76.0997 205° Southwest 381 438 35,900  Level Washington Center
09:53PM 37.3897 -76.1642 205° Southwest 386 444 35,900  Level Washington Center
09:54PM 37.2997 -76.2106 202° Southwest 386 444 36,000  Climbing Washington Center
09:55PM 37.2036 -76.2672 205° Southwest 386 444 36,000  Level Washington Center
09:56PM 37.1053 -76.3236 205° Southwest 386 444 36,000  Level Washington Center
09:57PM 37.0067 -76.3825 205° Southwest 386 444 36,000  Level Washington Center
09:58PM 36.9083 -76.4386 205° Southwest 386 444 36,000  Level Washington Center
09:59PM 36.8078 -76.4947 204° Southwest 386 444 36,000  Level Washington Center
10:00PM 36.7092 -76.5558 206° Southwest 386 444 36,000  Level Washington Center
10:01PM 36.6128 -76.6167 207° Southwest 392 451 36,000 -60 Level Washington Center
10:02PM 36.5122 -76.6722 204° Southwest 392 451 35,900  Descending Washington Center
10:03PM 36.4114 -76.7303 205° Southwest 392 451 36,000  Climbing Washington Center
10:04PM 36.3128 -76.7828 203° Southwest 392 451 36,000  Level Washington Center
10:05PM 36.1994 -76.8481 205° Southwest 398 458 36,000 -60 Level Washington Center
10:06PM 36.1008 -76.9031 204° Southwest 403 464 35,900 -60 Descending Washington Center
10:07PM 35.9981 -76.9631 205° Southwest 403 464 35,900  Level Washington Center
10:08PM 35.8972 -77.0203 205° Southwest 403 464 35,900  Level Washington Center
10:09PM 35.7964 -77.0772 205° Southwest 403 464 36,000  Climbing Washington Center
10:10PM 35.6956 -77.1317 204° Southwest 403 464 36,000  Level Washington Center
10:11PM 35.5947 -77.1886 205° Southwest 403 464 36,000  Level Washington Center
10:12PM 35.4894 -77.2475 204° Southwest 403 464 36,000  Level Washington Center
10:13PM 35.3928 -77.2914 200° South 408 470 36,000  Level Washington Center
10:14PM 35.2817 -77.3272 195° South 413 475 36,000  Level Washington Center
10:15PM 35.1683 -77.3706 197° South 419 482 36,000  Level Washington Center
10:16PM 35.0553 -77.4114 196° South 425 489 36,000  Level Washington Center
10:17PM 34.9397 -77.4492 195° South 425 489 36,000  Level Washington Center
10:18PM 34.8286 -77.4897 197° South 425 489 36,000  Level Washington Center
10:19PM 34.7172 -77.5325 198° South 420 483 36,000 -60 Level Washington Center
10:20PM 34.5347 -77.6000 197° South 421 484 35,900 -60 Descending Jacksonville Center
10:21PM 34.4239 -77.6394 196° South 421 484 35,900  Level Jacksonville Center
10:22PM 34.3086 -77.6792 196° South 421 484 36,000  Climbing Jacksonville Center
10:23PM 34.1956 -77.7186 196° South 426 490 36,000  Level Jacksonville Center
10:24PM 34.0864 -77.7525 194° South 444 511 36,000  Level Jacksonville Center
10:25PM 33.9756 -77.7967 198° South 439 505 36,000  Level Jacksonville Center
10:26PM 33.8622 -77.8333 195° South 428 493 36,000  Level Jacksonville Center
10:27PM 33.7469 -77.8725 196° South 428 493 36,000  Level Jacksonville Center
10:28PM 33.6297 -77.9164 197° South 433 498 36,000 -60 Level Jacksonville Center
10:29PM 33.5144 -77.9553 196° South 433 498 35,900 -60 Descending Jacksonville Center
10:30PM 33.3992 -77.9967 197° South 433 498 35,900  Level Jacksonville Center
10:31PM 33.2819 -78.0378 196° South 433 498 36,000  Climbing Jacksonville Center
10:32PM 33.1664 -78.0764 196° South 433 498 36,000 -60 Level Jacksonville Center
10:33PM 33.0492 -78.1197 197° South 433 498 35,900 -60 Descending Jacksonville Center
10:34PM 32.9317 -78.1583 195° South 433 498 35,900  Level Jacksonville Center
10:35PM 32.8142 -78.1942 194° South 433 498 36,000  Climbing Jacksonville Center
10:36PM 32.6967 -78.2372 197° South 433 498 36,000 -60 Level Jacksonville Center
10:37PM 32.5792 -78.2753 195° South 433 498 35,900 -60 Descending Jacksonville Center
10:38PM 32.4636 -78.3156 196° South 433 498 35,900  Level Jacksonville Center
10:39PM 32.3358 -78.3614 197° South 433 498 35,900  Level Jacksonville Center
10:40PM 32.2183 -78.3992 195° South 433 498 35,900  Level Jacksonville Center
10:41PM 32.1008 -78.4417 197° South 438 504 36,000  Climbing Jacksonville Center
10:42PM 31.9833 -78.4817 196° South 438 504 36,000 -60 Level Jacksonville Center
10:43PM 31.8656 -78.5214 196° South 438 504 35,900 -60 Descending Jacksonville Center
10:44PM 31.7458 -78.5614 196° South 438 504 35,900  Level Jacksonville Center
10:45PM 31.6261 -78.6011 196° South 447 514 36,000  Climbing Jacksonville Center
10:46PM 31.5086 -78.6406 196° South 447 514 36,000  Level Jacksonville Center
10:47PM 31.3847 -78.6828 196° South 456 525 36,000  Level Jacksonville Center
10:48PM 31.2650 -78.7197 195° South 449 517 36,000  Level Jacksonville Center
10:50PM 30.9900 -78.8142 196° South 447 514 36,000  Level Miami Center
10:51PM 30.8686 -78.8531 195° South 453 521 36,000 -60 Level Miami Center
10:52PM 30.7450 -78.8942 196° South 459 528 35,900  Descending Miami Center
10:53PM 30.6339 -78.9594 207° Southwest 449 517 36,000  Climbing Miami Center
10:54PM 30.5200 -79.0319 209° Southwest 454 522 35,900 -60 Descending Miami Center
10:55PM 30.4147 -79.1092 212° Southwest 454 522 35,900  Level Miami Center
10:56PM 30.3050 -79.1861 211° Southwest 463 533 35,900  Level Miami Center
10:57PM 30.1933 -79.2581 209° Southwest 463 533 35,900  Level Miami Center
10:58PM 30.0858 -79.3347 212° Southwest 463 533 35,900  Level Miami Center
10:59PM 29.9761 -79.4086 210° Southwest 463 533 35,900  Level Miami Center
11:00PM 29.8619 -79.4872 211° Southwest 468 539 35,900  Level Miami Center
11:01PM 29.7522 -79.5636 211° Southwest 468 539 35,900 -1,260 Level Miami Center
11:02PM 29.6550 -79.6328 212° Southwest 473 544 33,500 -2,520 Descending Miami Center
11:03PM 29.5431 -79.7061 210° Southwest 473 544 31,000 1,200 Descending Miami Center
11:04PM 29.4331 -79.7867 213° Southwest 478 550 36,000 -2,400 Climbing Miami Center
11:05PM 29.3167 -79.8597 209° Southwest 478 550 26,200 -6,240 Descending Miami Center
11:06PM 29.2003 -79.9375 210° Southwest 478 550 23,800 -2,460 Descending Miami Center
11:07PM 29.0881 -80.0150 211° Southwest 478 550 21,300 -2,700 Descending Miami Center
11:09PM 28.9167 -80.1500 215° Southwest 438 504 16,800 -2,760 Descending Orlando TRACON
11:10PM 28.8667 -80.2833 247° West 414 476 14,200 -1,440 Descending Orlando TRACON
11:11PM 28.8333 -80.4000 252° West 413 475 14,000 -360 Descending Orlando TRACON
11:12PM 28.8167 -80.5333 262° West 407 468 13,500 -900 Descending Orlando TRACON
11:13PM 28.8000 -80.6500 261° West 360 414 12,300 -1,320 Descending Orlando TRACON
11:14PM 28.7833 -80.7500 259° West 295 339 10,900 -1,920 Descending Orlando TRACON
11:15PM 28.7667 -80.8333 257° West 284 327 8,500 -2,280 Descending Orlando TRACON
11:16PM 28.7500 -80.9167 257° West 278 320 6,400 -1,260 Descending Orlando TRACON
11:17PM 28.7500 -81.0167 270° West 279 321 6,000 -900 Descending Orlando TRACON
11:18PM 28.7000 -81.0833 229° Southwest 268 308 4,600 -1,020 Descending Orlando TRACON
11:19PM 28.6667 -81.1500 240° Southwest 249 287 3,900 -840 Descending Orlando TRACON
11:20PM 28.6167 -81.2167 229° Southwest 225 259 3,000 -900 Descending Orlando TRACON